Time;durP1;ratioP1;P1;durP2;ratioP2;P2;SDS_P1;SDS_P2;PMS_P1;PMS_P2;Temp;Humidity;BMP_temperature;BMP_pressure;BME280_temperature;BME280_humidity;BME280_pressure;Samples;Min_cycle;Max_cycle;Signal;HPM_P1;HPM_P2
2021/01/03 00:01:09;;;;;;;59.80;24.48;;;3.90;96.20;;;;;;5009422;28;20042;-56
2021/01/03 00:03:35;;;;;;;84.40;28.35;;;3.90;96.20;;;;;;5006258;28;20061;-56
2021/01/03 00:06:01;;;;;;;76.07;26.65;;;3.90;96.10;;;;;;5012166;28;20056;-56
2021/01/03 00:08:26;;;;;;;62.58;24.38;;;3.90;96.00;;;;;;5011588;28;20411;-55
2021/01/03 00:10:52;;;;;;;47.65;21.65;;;3.90;96.00;;;;;;5011244;28;20189;-56
2021/01/03 00:13:18;;;;;;;52.15;23.30;;;3.90;96.00;;;;;;5010125;28;20542;-55
2021/01/03 00:15:43;;;;;;;60.15;24.95;;;3.90;96.00;;;;;;5010678;28;20491;-56
2021/01/03 00:18:09;;;;;;;94.57;30.52;;;3.90;96.00;;;;;;5013110;28;20038;-56
2021/01/03 00:20:36;;;;;;;89.93;30.27;;;4.00;96.00;;;;;;5013017;28;20399;-56
2021/01/03 00:23:01;;;;;;;91.55;31.05;;;4.00;96.00;;;;;;5009657;28;20029;-56
2021/01/03 00:25:28;;;;;;;78.53;29.42;;;4.00;96.00;;;;;;5009825;28;20435;-56
2021/01/03 00:27:54;;;;;;;101.38;32.80;;;3.90;96.00;;;;;;5012604;28;20034;-55
2021/01/03 00:30:23;;;;;;;92.85;34.13;;;3.90;96.10;;;;;;5013129;28;20092;-55
2021/01/03 00:32:49;;;;;;;132.57;38.00;;;3.90;96.10;;;;;;5011158;28;20041;-56
2021/01/03 00:35:20;;;;;;;119.78;35.90;;;3.90;96.10;;;;;;5012134;28;20104;-56
2021/01/03 00:37:46;;;;;;;146.77;40.20;;;3.90;96.10;;;;;;4992404;28;20042;-56
2021/01/03 00:40:17;;;;;;;125.55;38.25;;;3.90;96.20;;;;;;5011703;28;20046;-55
2021/01/03 00:42:42;;;;;;;173.60;44.72;;;3.90;96.20;;;;;;5010649;28;20038;-55
2021/01/03 00:45:09;;;;;;;171.07;43.08;;;3.90;96.30;;;;;;5010547;28;20042;-56
2021/01/03 00:47:36;;;;;;;195.00;45.72;;;3.90;96.40;;;;;;5012928;28;20039;-55
2021/01/03 00:50:04;;;;;;;216.77;48.30;;;3.90;96.50;;;;;;5013528;28;20125;-55
2021/01/03 00:52:29;;;;;;;140.48;39.55;;;3.90;96.40;;;;;;5010254;28;20065;-55
2021/01/03 00:54:55;;;;;;;143.30;41.28;;;3.90;96.40;;;;;;5008090;28;20072;-56
2021/01/03 00:57:21;;;;;;;151.05;41.45;;;3.90;96.50;;;;;;5010349;28;20111;-55
2021/01/03 00:59:46;;;;;;;128.07;39.22;;;3.90;96.40;;;;;;4994287;28;20626;-55
2021/01/03 01:02:12;;;;;;;144.52;40.15;;;3.90;96.40;;;;;;5013605;28;20511;-55
2021/01/03 01:04:37;;;;;;;123.50;39.63;;;3.90;96.40;;;;;;5011970;28;20104;-55
2021/01/03 01:07:03;;;;;;;119.25;38.85;;;3.90;96.40;;;;;;5009604;28;20048;-55
2021/01/03 01:09:29;;;;;;;112.63;38.83;;;3.90;96.40;;;;;;5009620;28;20068;-55
2021/01/03 01:11:54;;;;;;;124.50;37.30;;;3.90;96.50;;;;;;5009503;28;20104;-56
2021/01/03 01:14:20;;;;;;;111.07;37.05;;;3.90;96.50;;;;;;5010085;28;20046;-55
2021/01/03 01:16:47;;;;;;;106.55;35.92;;;3.80;96.40;;;;;;5008227;28;20042;-56
2021/01/03 01:19:12;;;;;;;115.05;37.05;;;3.90;96.40;;;;;;5010197;28;20053;-55
2021/01/03 01:21:38;;;;;;;89.57;33.83;;;3.90;96.50;;;;;;5009405;28;20504;-55
2021/01/03 01:24:04;;;;;;;101.90;33.95;;;3.90;96.40;;;;;;5007517;28;20034;-55
2021/01/03 01:26:30;;;;;;;97.65;35.95;;;3.90;96.40;;;;;;5010745;28;20484;-56
2021/01/03 01:28:55;;;;;;;100.70;35.63;;;3.90;96.40;;;;;;5012661;28;20073;-55
2021/01/03 01:31:21;;;;;;;91.70;34.55;;;3.90;96.40;;;;;;5010507;28;20068;-55
2021/01/03 01:33:46;;;;;;;92.03;33.42;;;3.90;96.40;;;;;;5006712;28;20085;-56
2021/01/03 01:36:13;;;;;;;107.95;35.28;;;3.90;96.40;;;;;;5008579;28;20057;-56
2021/01/03 01:38:38;;;;;;;89.78;33.50;;;3.90;96.40;;;;;;5009991;28;20092;-55
2021/01/03 01:41:04;;;;;;;96.38;33.17;;;3.90;96.40;;;;;;5011244;28;20041;-55
2021/01/03 01:43:31;;;;;;;103.20;36.55;;;3.90;96.30;;;;;;5006528;28;20084;-56
2021/01/03 01:45:57;;;;;;;87.55;33.33;;;3.90;96.30;;;;;;5007601;28;20046;-55
2021/01/03 01:48:30;;;;;;;76.80;31.20;;;3.90;96.30;;;;;;5011775;28;20049;-56
2021/01/03 01:51:14;;;;;;;70.38;29.70;;;3.80;96.20;;;;;;4991531;28;629832;-55
2021/01/03 01:53:40;;;;;;;80.20;31.63;;;3.90;96.50;;;;;;5005587;28;20042;-55
2021/01/03 01:56:32;;;;;;;82.72;31.23;;;3.90;96.20;;;;;;5011717;28;20052;-55
2021/01/03 01:59:12;;;;;;;79.15;31.55;;;3.80;96.20;;;;;;4998227;28;20057;-56
2021/01/03 02:01:50;;;;;;;79.85;32.08;;;3.80;96.10;;;;;;5010293;28;20095;-55
2021/01/03 02:04:48;;;;;;;74.55;30.60;;;3.80;96.10;;;;;;5005524;28;20176;-55
2021/01/03 02:07:27;;;;;;;80.68;32.65;;;3.80;96.10;;;;;;5001981;28;20050;-55
2021/01/03 02:10:12;;;;;;;83.10;31.33;;;3.70;96.10;;;;;;5009008;28;20029;-55
2021/01/03 02:12:42;;;;;;;89.78;34.13;;;3.80;96.10;;;;;;5010143;28;20069;-55
2021/01/03 02:15:25;;;;;;;81.35;34.05;;;3.70;96.10;;;;;;5009734;28;20451;-55
2021/01/03 02:17:51;;;;;;;72.63;30.92;;;3.70;96.10;;;;;;5010853;28;20550;-55
2021/01/03 02:20:17;;;;;;;79.28;33.17;;;3.70;96.10;;;;;;5007538;28;20041;-55
2021/01/03 02:22:59;;;;;;;82.60;33.05;;;3.70;96.10;;;;;;5008805;28;20229;-55
2021/01/03 02:25:25;;;;;;;71.35;30.08;;;3.70;96.10;;;;;;5007509;28;20107;-55
2021/01/03 02:28:18;;;;;;;76.28;32.15;;;3.70;96.10;;;;;;5006421;28;20042;-56
2021/01/03 02:30:48;;;;;;;74.78;31.13;;;3.60;96.10;;;;;;5008023;28;20073;-55
2021/01/03 02:33:35;;;;;;;80.68;33.13;;;3.60;96.10;;;;;;5012095;28;20045;-55
2021/01/03 02:36:12;;;;;;;77.45;32.53;;;3.70;96.10;;;;;;5008554;28;20041;-55
2021/01/03 02:38:46;;;;;;;81.95;34.47;;;3.60;96.10;;;;;;5005458;28;20534;-55
2021/01/03 02:41:12;;;;;;;76.07;32.83;;;3.60;96.10;;;;;;5011051;28;20076;-55
2021/01/03 02:43:37;;;;;;;91.97;34.10;;;3.60;96.10;;;;;;5005936;28;20073;-55
2021/01/03 02:46:03;;;;;;;81.05;32.90;;;3.60;96.10;;;;;;5006893;28;20034;-55
2021/01/03 02:48:29;;;;;;;94.38;35.42;;;3.60;96.10;;;;;;5005327;28;20460;-55
2021/01/03 02:50:54;;;;;;;84.95;34.03;;;3.60;96.10;;;;;;5009166;28;20045;-55
2021/01/03 02:53:20;;;;;;;90.38;35.42;;;3.60;96.20;;;;;;5007944;28;20041;-55
2021/01/03 02:55:46;;;;;;;81.63;33.15;;;3.60;96.20;;;;;;5005742;28;20431;-56
2021/01/03 02:58:12;;;;;;;90.53;35.10;;;3.60;96.20;;;;;;5006604;28;20092;-55
2021/01/03 03:00:38;;;;;;;90.35;34.70;;;3.60;96.10;;;;;;5008541;28;20115;-55
2021/01/03 03:03:06;;;;;;;94.90;35.42;;;3.60;96.20;;;;;;5007386;28;20432;-55
2021/01/03 03:05:32;;;;;;;81.28;33.97;;;3.60;96.20;;;;;;5008562;28;20034;-56
2021/01/03 03:07:58;;;;;;;89.38;32.88;;;3.60;96.20;;;;;;5002342;28;20041;-55
2021/01/03 03:10:24;;;;;;;87.95;33.33;;;3.60;96.30;;;;;;5010449;28;20041;-55
2021/01/03 03:12:52;;;;;;;89.43;34.50;;;3.70;96.30;;;;;;5006119;28;20113;-55
2021/01/03 03:15:19;;;;;;;86.95;33.72;;;3.70;96.20;;;;;;5009974;28;20554;-55
2021/01/03 03:17:45;;;;;;;81.75;33.38;;;3.60;96.20;;;;;;5003687;28;20088;-55
2021/01/03 03:20:11;;;;;;;88.40;34.63;;;3.60;96.20;;;;;;4987683;28;20446;-55
2021/01/03 03:22:37;;;;;;;80.53;34.38;;;3.60;96.20;;;;;;4986168;28;20046;-55
2021/01/03 03:25:05;;;;;;;83.25;33.80;;;3.60;96.20;;;;;;5003266;28;20064;-55
2021/01/03 03:27:31;;;;;;;73.60;32.60;;;3.60;96.20;;;;;;5002571;28;20468;-55
2021/01/03 03:29:57;;;;;;;78.15;32.47;;;3.60;96.10;;;;;;5002673;28;20042;-55
2021/01/03 03:32:22;;;;;;;71.10;31.63;;;3.60;96.20;;;;;;5005479;28;20518;-55
2021/01/03 03:34:48;;;;;;;73.20;33.45;;;3.60;96.20;;;;;;5007797;28;20044;-55
2021/01/03 03:37:14;;;;;;;76.82;32.47;;;3.60;96.10;;;;;;5004468;28;20034;-55
2021/01/03 03:39:40;;;;;;;82.22;34.70;;;3.60;96.10;;;;;;5008078;28;20065;-55
2021/01/03 03:42:06;;;;;;;79.10;33.28;;;3.60;96.10;;;;;;5007276;28;20038;-55
2021/01/03 03:44:32;;;;;;;81.57;33.55;;;3.60;96.10;;;;;;5008287;28;20096;-56
2021/01/03 03:47:03;;;;;;;85.65;34.28;;;3.60;96.10;;;;;;5004806;28;20050;-55
2021/01/03 03:49:30;;;;;;;78.65;34.13;;;3.60;96.10;;;;;;5004237;28;20484;-55
2021/01/03 03:51:58;;;;;;;76.35;32.50;;;3.60;96.10;;;;;;5009760;28;20064;-55
2021/01/03 03:54:24;;;;;;;82.50;34.30;;;3.60;96.10;;;;;;5009019;28;20101;-57
2021/01/03 03:56:59;;;;;;;81.13;32.75;;;3.70;96.10;;;;;;5005571;28;20057;-55
2021/01/03 03:59:26;;;;;;;68.57;32.73;;;3.70;96.10;;;;;;5007983;28;20042;-55
2021/01/03 04:01:52;;;;;;;66.82;31.38;;;3.60;96.10;;;;;;5007741;28;20037;-55
2021/01/03 04:04:19;;;;;;;78.40;32.92;;;3.60;96.10;;;;;;5004996;28;20030;-55
2021/01/03 04:06:45;;;;;;;63.50;30.25;;;3.60;96.00;;;;;;5008803;28;20042;-55
2021/01/03 04:09:12;;;;;;;68.88;32.38;;;3.60;96.00;;;;;;5006087;28;20037;-55
2021/01/03 04:11:40;;;;;;;76.10;32.58;;;3.60;96.00;;;;;;5007995;28;20037;-55
2021/01/03 04:14:05;;;;;;;68.65;30.95;;;3.70;96.10;;;;;;5005945;28;20064;-55
2021/01/03 04:16:31;;;;;;;70.03;32.22;;;3.60;96.00;;;;;;5007517;28;20104;-55
2021/01/03 04:18:57;;;;;;;70.50;31.52;;;3.70;96.10;;;;;;5008677;28;20393;-55
2021/01/03 04:21:22;;;;;;;68.45;31.30;;;3.60;96.10;;;;;;5005328;28;20038;-56
2021/01/03 04:23:48;;;;;;;66.95;30.77;;;3.60;96.00;;;;;;5007929;28;20570;-55
2021/01/03 04:26:16;;;;;;;66.78;31.40;;;3.60;96.00;;;;;;5007400;28;20092;-55
2021/01/03 04:28:42;;;;;;;66.70;31.40;;;3.60;96.00;;;;;;5004709;28;20044;-55
2021/01/03 04:31:07;;;;;;;70.28;31.23;;;3.60;96.00;;;;;;5008181;28;20450;-55
2021/01/03 04:33:33;;;;;;;69.70;31.92;;;3.70;96.00;;;;;;5006912;28;20048;-56
2021/01/03 04:35:59;;;;;;;57.20;29.60;;;3.60;96.00;;;;;;5005532;28;20052;-56
2021/01/03 04:38:26;;;;;;;64.90;31.15;;;3.70;96.10;;;;;;5004668;28;20052;-55
2021/01/03 04:40:55;;;;;;;62.95;30.92;;;3.60;96.00;;;;;;5009346;28;20045;-55
2021/01/03 04:43:21;;;;;;;58.00;29.40;;;3.70;96.00;;;;;;5006328;28;20073;-55
2021/01/03 04:45:57;;;;;;;64.75;30.23;;;3.70;96.00;;;;;;5005506;28;20364;-56
2021/01/03 04:48:30;;;;;;;62.38;30.55;;;3.70;95.90;;;;;;5010385;28;20038;-56
2021/01/03 04:51:29;;;;;;;60.78;29.98;;;3.70;96.00;;;;;;5009834;28;21561;-56
2021/01/03 04:54:12;;;;;;;63.42;31.05;;;3.70;95.90;;;;;;5010474;28;20502;-56
2021/01/03 04:56:40;;;;;;;63.75;31.75;;;3.70;95.90;;;;;;5011206;28;20056;-56
2021/01/03 04:59:18;;;;;;;60.88;30.73;;;3.70;95.90;;;;;;5009088;28;20046;-56
2021/01/03 05:01:56;;;;;;;61.50;30.15;;;3.70;95.80;;;;;;5008150;28;20038;-56
2021/01/03 05:04:46;;;;;;;57.08;29.92;;;3.70;95.90;;;;;;5003063;28;20050;-56
2021/01/03 05:07:27;;;;;;;62.40;31.27;;;3.70;95.90;;;;;;5000437;28;20473;-56
2021/01/03 05:10:06;;;;;;;60.70;31.20;;;3.70;95.80;;;;;;5011252;28;20464;-56
2021/01/03 05:12:43;;;;;;;61.67;30.90;;;3.70;95.80;;;;;;5010610;28;20116;-56
2021/01/03 05:15:13;;;;;;;62.65;30.77;;;3.70;95.80;;;;;;4989540;28;20060;-56
2021/01/03 05:17:39;;;;;;;68.22;33.83;;;3.70;95.80;;;;;;5011359;28;20042;-56
2021/01/03 05:20:06;;;;;;;68.55;32.65;;;3.70;95.90;;;;;;5009871;28;20093;-56
2021/01/03 05:22:36;;;;;;;62.53;31.77;;;3.70;95.80;;;;;;5010014;28;20040;-56
2021/01/03 05:25:05;;;;;;;63.42;31.95;;;3.70;95.80;;;;;;5009678;28;20072;-56
2021/01/03 05:27:33;;;;;;;69.43;32.15;;;3.70;95.90;;;;;;5011634;28;20060;-56
2021/01/03 05:30:15;;;;;;;61.20;30.92;;;3.70;95.90;;;;;;5009005;28;20038;-56
2021/01/03 05:32:41;;;;;;;67.13;31.70;;;3.70;95.80;;;;;;5006237;28;20034;-56
2021/01/03 05:35:26;;;;;;;67.43;32.38;;;3.70;95.80;;;;;;5010661;28;20085;-56
2021/01/03 05:37:54;;;;;;;62.17;31.48;;;3.70;95.80;;;;;;5010910;28;20552;-56
2021/01/03 05:40:32;;;;;;;66.10;32.03;;;3.70;95.80;;;;;;5009501;28;20483;-56
2021/01/03 05:43:17;;;;;;;69.07;32.90;;;3.70;95.80;;;;;;5008386;28;20063;-56
2021/01/03 05:46:14;;;;;;;66.18;32.13;;;3.70;95.80;;;;;;5008474;28;20037;-56
2021/01/03 05:48:56;;;;;;;71.88;33.40;;;3.70;95.90;;;;;;5009012;28;20030;-56
2021/01/03 05:51:32;;;;;;;62.25;32.53;;;3.70;95.90;;;;;;5008421;28;20112;-56
2021/01/03 05:54:05;;;;;;;65.75;31.55;;;3.70;95.80;;;;;;5005563;28;21276;-56
2021/01/03 05:56:34;;;;;;;62.00;30.50;;;3.70;95.90;;;;;;5010478;28;20064;-56
2021/01/03 05:59:00;;;;;;;61.25;30.92;;;3.80;95.90;;;;;;5006636;28;20041;-56
2021/01/03 06:01:32;;;;;;;67.13;32.15;;;3.80;95.90;;;;;;5008656;28;20038;-56
2021/01/03 06:04:06;;;;;;;58.92;31.45;;;3.80;95.80;;;;;;5006088;28;20048;-56
2021/01/03 06:06:44;;;;;;;59.35;29.92;;;3.80;95.80;;;;;;5009680;28;20475;-56
2021/01/03 06:09:11;;;;;;;65.05;31.63;;;3.80;95.80;;;;;;5008129;28;20851;-56
2021/01/03 06:11:40;;;;;;;62.00;32.17;;;3.80;95.80;;;;;;5005227;28;20045;-56
2021/01/03 06:14:09;;;;;;;57.80;31.70;;;3.80;95.70;;;;;;5006923;28;20038;-56
2021/01/03 06:16:46;;;;;;;59.90;31.60;;;3.80;95.80;;;;;;5009928;28;20038;-56
2021/01/03 06:19:34;;;;;;;66.82;33.25;;;3.80;95.70;;;;;;5011576;28;20058;-56
2021/01/03 06:22:17;;;;;;;65.57;31.92;;;3.90;95.70;;;;;;5005820;28;20443;-56
2021/01/03 06:24:42;;;;;;;67.57;32.97;;;3.80;95.70;;;;;;5003305;28;20121;-56
2021/01/03 06:27:28;;;;;;;63.13;33.17;;;3.80;95.70;;;;;;5004015;28;20117;-56
2021/01/03 06:30:13;;;;;;;67.90;33.45;;;3.90;95.70;;;;;;5005467;28;20124;-56
2021/01/03 06:33:20;;;;;;;63.72;33.35;;;3.80;95.70;;;;;;5004468;28;20045;-56
2021/01/03 06:35:56;;;;;;;69.47;34.53;;;3.80;95.70;;;;;;4977179;28;20466;-56
2021/01/03 06:38:28;;;;;;;62.85;32.58;;;3.80;95.70;;;;;;5004723;28;20101;-56
2021/01/03 06:41:12;;;;;;;65.65;32.50;;;3.80;95.60;;;;;;5002831;28;20073;-56
2021/01/03 06:43:52;;;;;;;67.07;34.28;;;3.80;95.60;;;;;;5004296;28;20510;-56
2021/01/03 06:46:58;;;;;;;60.03;32.55;;;3.90;95.60;;;;;;5004908;28;20041;-56
2021/01/03 06:49:51;;;;;;;70.32;33.17;;;3.80;95.60;;;;;;4971457;28;20065;-56
2021/01/03 06:52:35;;;;;;;58.65;31.77;;;3.80;95.60;;;;;;5006659;28;20405;-56
2021/01/03 06:55:39;;;;;;;59.22;30.58;;;3.80;95.50;;;;;;4991102;28;20527;-56
2021/01/03 06:58:41;;;;;;;61.72;31.98;;;3.80;95.50;;;;;;4969233;28;20042;-56
2021/01/03 07:01:29;;;;;;;55.00;30.58;;;3.80;95.80;;;;;;5011158;28;20497;-56
2021/01/03 07:03:58;;;;;;;57.00;31.35;;;3.80;95.50;;;;;;5009658;28;20439;-56
2021/01/03 07:06:36;;;;;;;65.25;32.58;;;3.70;95.50;;;;;;5009283;28;20038;-56
2021/01/03 07:09:10;;;;;;;59.05;32.00;;;3.80;95.50;;;;;;4981369;28;20080;-55
2021/01/03 07:11:41;;;;;;;64.03;33.22;;;3.70;95.40;;;;;;5004580;28;20156;-55
2021/01/03 07:14:31;;;;;;;62.47;33.65;;;3.70;95.40;;;;;;5002735;28;20077;-55
2021/01/03 07:17:00;;;;;;;60.50;30.92;;;3.70;95.40;;;;;;5005097;28;20064;-55
2021/01/03 07:19:33;;;;;;;61.63;32.03;;;3.70;95.40;;;;;;5002291;28;20373;-55
2021/01/03 07:22:14;;;;;;;57.95;31.50;;;3.70;95.40;;;;;;5004912;28;20030;-55
2021/01/03 07:24:52;;;;;;;59.72;31.23;;;3.70;95.40;;;;;;5006809;28;20096;-55
2021/01/03 07:27:20;;;;;;;67.45;32.13;;;3.70;95.40;;;;;;5003276;28;20046;-55
2021/01/03 07:29:56;;;;;;;55.42;30.50;;;3.70;95.40;;;;;;5003199;28;20384;-55
2021/01/03 07:32:29;;;;;;;59.35;32.13;;;3.70;95.40;;;;;;5001230;28;20497;-55
2021/01/03 07:34:55;;;;;;;60.55;31.83;;;3.70;95.40;;;;;;5000099;28;20038;-55
2021/01/03 07:37:26;;;;;;;60.50;32.33;;;3.70;95.40;;;;;;5000990;28;20042;-55
2021/01/03 07:39:59;;;;;;;62.78;31.60;;;3.70;95.30;;;;;;5011008;28;20061;-55
2021/01/03 07:42:32;;;;;;;55.38;30.67;;;3.70;95.40;;;;;;5009715;28;20116;-55
2021/01/03 07:45:00;;;;;;;54.17;29.90;;;3.70;95.40;;;;;;5006350;28;20038;-55
2021/01/03 07:47:36;;;;;;;62.50;32.08;;;3.70;95.30;;;;;;5005497;28;20046;-56
2021/01/03 07:50:22;;;;;;;54.92;30.65;;;3.70;95.30;;;;;;5007458;28;20115;-55
2021/01/03 07:52:50;;;;;;;50.88;29.73;;;3.70;95.20;;;;;;5007190;28;20456;-55
2021/01/03 07:55:36;;;;;;;49.78;29.95;;;3.70;95.20;;;;;;5001879;28;20029;-55
2021/01/03 07:58:14;;;;;;;45.45;27.92;;;3.70;95.10;;;;;;5009511;28;20393;-56
2021/01/03 08:00:42;;;;;;;54.40;28.45;;;3.60;95.00;;;;;;5005767;28;20042;-55
2021/01/03 08:03:14;;;;;;;50.58;29.00;;;3.70;94.90;;;;;;5011121;28;20076;-56
2021/01/03 08:05:42;;;;;;;50.33;27.55;;;3.70;94.90;;;;;;5007755;28;20045;-55
2021/01/03 08:08:24;;;;;;;48.30;27.38;;;3.60;94.90;;;;;;5008008;28;20124;-55
2021/01/03 08:11:03;;;;;;;45.28;27.70;;;3.70;94.90;;;;;;5010180;28;20435;-55
2021/01/03 08:13:34;;;;;;;48.40;27.48;;;3.60;94.90;;;;;;5012238;28;20045;-56
2021/01/03 08:16:01;;;;;;;45.78;26.30;;;3.60;94.90;;;;;;5005889;28;20061;-55
2021/01/03 08:18:37;;;;;;;46.92;26.67;;;3.60;94.90;;;;;;5009116;28;20057;-55
2021/01/03 08:21:15;;;;;;;46.10;26.42;;;3.70;95.00;;;;;;5005600;28;20100;-55
2021/01/03 08:23:41;;;;;;;45.97;26.95;;;3.70;95.00;;;;;;5007461;28;20392;-55
2021/01/03 08:26:08;;;;;;;42.17;25.25;;;3.70;95.00;;;;;;5011657;28;20049;-55
2021/01/03 08:28:48;;;;;;;43.30;27.08;;;3.70;94.90;;;;;;5008894;28;20030;-55
2021/01/03 08:31:13;;;;;;;43.97;25.50;;;3.70;94.90;;;;;;5011596;28;20037;-55
2021/01/03 08:33:42;;;;;;;46.28;27.52;;;3.70;94.90;;;;;;5012190;28;20381;-55
2021/01/03 08:36:34;;;;;;;46.40;26.58;;;3.70;94.90;;;;;;5013576;28;20038;-55
2021/01/03 08:39:06;;;;;;;48.60;26.50;;;3.70;95.00;;;;;;5014987;28;20045;-55
2021/01/03 08:41:36;;;;;;;43.42;26.00;;;3.70;94.90;;;;;;5012578;28;20045;-55
2021/01/03 08:44:25;;;;;;;48.80;26.42;;;3.70;94.90;;;;;;5011081;28;20049;-55
2021/01/03 08:47:03;;;;;;;48.05;28.40;;;3.70;94.90;;;;;;5011367;28;20124;-55
2021/01/03 08:50:01;;;;;;;44.47;27.25;;;3.70;94.90;;;;;;5012132;28;20048;-55
2021/01/03 08:52:26;;;;;;;42.15;26.58;;;3.80;94.90;;;;;;5009474;28;20056;-55
2021/01/03 08:55:06;;;;;;;43.85;25.85;;;3.70;94.80;;;;;;5010580;28;20042;-55
2021/01/03 08:57:32;;;;;;;42.05;25.90;;;3.80;94.90;;;;;;5009348;28;20084;-55
2021/01/03 08:59:59;;;;;;;46.42;26.17;;;3.80;94.80;;;;;;5009680;28;20038;-55
2021/01/03 09:02:27;;;;;;;48.42;26.83;;;3.80;94.90;;;;;;5012346;28;20044;-55
2021/01/03 09:05:01;;;;;;;45.20;26.20;;;3.80;94.80;;;;;;5012634;28;20036;-55
2021/01/03 09:07:34;;;;;;;46.67;25.10;;;3.80;94.90;;;;;;5009139;28;20061;-55
2021/01/03 09:10:01;;;;;;;39.58;24.05;;;3.80;95.20;;;;;;4993092;28;20396;-56
2021/01/03 09:12:42;;;;;;;39.90;23.08;;;3.90;94.80;;;;;;5007855;28;20416;-55
2021/01/03 09:15:16;;;;;;;39.90;23.77;;;3.90;94.90;;;;;;5011720;28;20044;-55
2021/01/03 09:17:43;;;;;;;38.58;24.50;;;3.90;94.60;;;;;;5009375;28;20124;-55
2021/01/03 09:20:18;;;;;;;39.78;25.05;;;3.90;94.40;;;;;;5014747;28;20095;-55
2021/01/03 09:22:53;;;;;;;39.53;25.23;;;3.90;94.60;;;;;;5011151;28;20109;-55
2021/01/03 09:25:32;;;;;;;40.78;24.35;;;3.90;94.40;;;;;;5010145;28;20506;-55
2021/01/03 09:28:26;;;;;;;36.75;22.85;;;3.90;94.30;;;;;;5011350;28;20057;-55
2021/01/03 09:31:14;;;;;;;37.58;22.23;;;3.90;94.30;;;;;;4992450;28;20543;-55
2021/01/03 09:33:44;;;;;;;35.92;22.50;;;4.00;94.30;;;;;;5013082;28;20116;-55
2021/01/03 09:36:42;;;;;;;38.72;24.02;;;4.00;94.20;;;;;;5011619;28;20080;-56
2021/01/03 09:39:16;;;;;;;34.05;21.98;;;4.00;94.30;;;;;;5010625;28;20037;-55
2021/01/03 09:41:56;;;;;;;39.80;23.33;;;4.00;94.20;;;;;;5011912;28;20456;-55
2021/01/03 09:44:36;;;;;;;35.45;22.30;;;4.00;94.40;;;;;;5010048;28;20069;-55
2021/01/03 09:47:08;;;;;;;35.10;22.83;;;4.00;94.20;;;;;;5009541;28;20038;-55
2021/01/03 09:49:37;;;;;;;34.47;22.45;;;4.00;94.10;;;;;;5014836;28;20084;-55
2021/01/03 09:52:28;;;;;;;40.67;23.17;;;4.00;94.10;;;;;;5010222;28;20044;-55
2021/01/03 09:55:08;;;;;;;36.95;21.75;;;4.00;94.20;;;;;;5010540;28;20042;-56
2021/01/03 09:57:55;;;;;;;35.17;21.30;;;4.00;94.20;;;;;;5012753;28;20113;-55
2021/01/03 10:00:22;;;;;;;32.63;21.23;;;4.00;94.20;;;;;;5007534;28;20077;-55
2021/01/03 10:02:48;;;;;;;33.83;20.60;;;4.00;94.10;;;;;;5009261;28;20046;-55
2021/01/03 10:05:31;;;;;;;35.97;22.35;;;4.00;93.80;;;;;;5008304;28;20041;-55
2021/01/03 10:08:03;;;;;;;31.90;20.40;;;4.00;94.00;;;;;;5009815;28;20042;-55
2021/01/03 10:10:55;;;;;;;28.52;18.85;;;4.10;93.70;;;;;;5009247;28;20099;-55
2021/01/03 10:13:22;;;;;;;33.80;21.05;;;4.10;93.70;;;;;;5008566;28;20065;-55
2021/01/03 10:15:52;;;;;;;31.58;19.77;;;4.10;93.60;;;;;;5011005;28;20034;-55
2021/01/03 10:18:36;;;;;;;31.67;20.13;;;4.10;93.50;;;;;;5008929;28;20447;-56
2021/01/03 10:21:19;;;;;;;29.85;20.63;;;4.00;93.20;;;;;;5009273;28;20034;-55
2021/01/03 10:23:53;;;;;;;28.55;19.80;;;4.00;93.30;;;;;;5007748;28;20042;-56
2021/01/03 10:26:37;;;;;;;31.73;20.60;;;4.10;93.20;;;;;;5009270;28;20057;-55
2021/01/03 10:29:04;;;;;;;29.65;20.38;;;4.20;93.10;;;;;;5007941;28;21270;-55
2021/01/03 10:31:48;;;;;;;29.17;19.27;;;4.00;93.00;;;;;;5010126;28;20045;-55
2021/01/03 10:34:15;;;;;;;32.75;20.48;;;4.00;92.70;;;;;;5007226;28;20488;-55
2021/01/03 10:36:41;;;;;;;31.55;20.30;;;4.10;92.90;;;;;;4991753;28;20072;-55
2021/01/03 10:39:09;;;;;;;33.05;20.58;;;4.10;93.10;;;;;;5008191;28;20062;-55
2021/01/03 10:41:37;;;;;;;32.55;20.90;;;4.10;92.80;;;;;;5009613;28;20481;-56
2021/01/03 10:44:04;;;;;;;36.55;21.63;;;4.10;92.80;;;;;;4989598;28;20042;-55
2021/01/03 10:46:30;;;;;;;32.75;21.67;;;4.20;92.80;;;;;;5011545;28;20446;-55
2021/01/03 10:48:57;;;;;;;29.15;20.38;;;4.20;93.10;;;;;;5008345;28;20042;-55
2021/01/03 10:51:41;;;;;;;27.02;18.65;;;4.20;92.70;;;;;;5005432;28;20459;-55
2021/01/03 10:54:10;;;;;;;26.90;19.20;;;4.20;92.30;;;;;;5007260;28;20043;-56
2021/01/03 10:56:36;;;;;;;27.15;17.00;;;4.20;92.20;;;;;;5008540;28;20393;-55
2021/01/03 10:59:05;;;;;;;25.38;16.27;;;4.20;91.90;;;;;;5003747;28;20034;-55
2021/01/03 11:01:31;;;;;;;29.45;18.83;;;4.20;91.70;;;;;;5002941;28;20048;-56
2021/01/03 11:03:57;;;;;;;25.38;17.38;;;4.20;92.10;;;;;;5002441;28;20045;-55
2021/01/03 11:06:23;;;;;;;26.83;18.00;;;4.20;91.90;;;;;;5010198;28;20476;-55
2021/01/03 11:08:49;;;;;;;27.45;17.70;;;4.20;92.30;;;;;;5006029;28;20049;-55
2021/01/03 11:11:20;;;;;;;25.13;16.20;;;4.30;92.10;;;;;;5007570;28;20038;-55
2021/01/03 11:13:46;;;;;;;24.73;16.60;;;4.40;91.70;;;;;;5005268;28;20034;-55
2021/01/03 11:16:11;;;;;;;24.52;15.88;;;4.30;91.60;;;;;;5009496;28;20399;-55
2021/01/03 11:18:37;;;;;;;27.10;17.02;;;4.30;91.90;;;;;;5007964;28;20184;-56
2021/01/03 11:21:03;;;;;;;27.42;17.50;;;4.30;92.10;;;;;;5008558;28;20084;-55
2021/01/03 11:23:28;;;;;;;24.88;16.33;;;4.30;92.20;;;;;;5007096;28;20046;-55
2021/01/03 11:25:55;;;;;;;26.83;16.58;;;4.40;92.10;;;;;;5005310;28;20671;-56
2021/01/03 11:28:21;;;;;;;25.77;15.60;;;4.40;91.70;;;;;;5013058;28;20396;-55
2021/01/03 11:30:47;;;;;;;23.13;15.23;;;4.40;91.30;;;;;;5009168;28;20045;-56
2021/01/03 11:33:12;;;;;;;24.25;15.55;;;4.40;91.30;;;;;;4988921;28;20500;-56
2021/01/03 11:35:38;;;;;;;21.85;14.30;;;4.40;91.50;;;;;;5009543;28;20042;-56
2021/01/03 11:38:04;;;;;;;25.48;16.40;;;4.40;91.50;;;;;;5003988;28;20045;-55
2021/01/03 11:40:29;;;;;;;22.08;14.93;;;4.50;91.60;;;;;;5008081;28;20495;-55
2021/01/03 11:42:57;;;;;;;22.55;14.25;;;4.40;91.70;;;;;;5001398;28;20508;-56
2021/01/03 11:45:23;;;;;;;20.42;13.77;;;4.30;91.40;;;;;;5003871;28;20467;-55
2021/01/03 11:47:49;;;;;;;19.20;12.65;;;4.40;91.20;;;;;;5008756;28;20073;-55
2021/01/03 11:50:19;;;;;;;21.58;14.32;;;4.40;91.00;;;;;;5009122;28;20046;-55
2021/01/03 11:52:45;;;;;;;24.00;15.05;;;4.30;91.00;;;;;;5008285;28;20049;-56
2021/01/03 11:55:13;;;;;;;20.42;13.73;;;4.30;91.20;;;;;;5004330;28;20045;-55
2021/01/03 11:57:39;;;;;;;25.13;15.15;;;4.40;91.30;;;;;;5011558;28;20048;-55
2021/01/03 12:00:09;;;;;;;21.00;15.02;;;4.40;91.20;;;;;;5013058;28;20030;-56
2021/01/03 12:02:34;;;;;;;23.23;14.57;;;4.40;91.40;;;;;;5011039;28;20432;-55
2021/01/03 12:05:00;;;;;;;19.58;12.57;;;4.50;91.40;;;;;;5007209;28;20091;-56
2021/01/03 12:07:26;;;;;;;19.30;12.32;;;4.50;90.70;;;;;;4991093;28;20038;-56
2021/01/03 12:09:52;;;;;;;17.83;12.05;;;4.50;90.90;;;;;;5011253;28;20503;-55
2021/01/03 12:12:20;;;;;;;16.10;10.48;;;4.50;90.80;;;;;;5010054;28;20392;-55
2021/01/03 12:14:46;;;;;;;17.73;12.57;;;4.50;90.40;;;;;;5011235;28;20042;-56
2021/01/03 12:17:16;;;;;;;16.10;10.63;;;4.40;90.70;;;;;;5014333;28;20187;-55
2021/01/03 12:19:42;;;;;;;18.10;12.43;;;4.50;90.60;;;;;;5012776;28;20037;-55
2021/01/03 12:22:08;;;;;;;17.73;11.38;;;4.40;90.40;;;;;;5010552;28;20037;-55
2021/01/03 12:24:34;;;;;;;17.02;11.52;;;4.40;90.80;;;;;;5008384;28;20419;-55
2021/01/03 12:27:02;;;;;;;16.67;11.85;;;4.50;91.20;;;;;;5010605;28;20404;-56
2021/01/03 12:29:29;;;;;;;12.73;8.65;;;4.50;91.00;;;;;;5013278;28;20045;-55
2021/01/03 12:31:58;;;;;;;11.75;8.45;;;4.50;90.20;;;;;;5013077;28;20121;-55
2021/01/03 12:34:26;;;;;;;11.93;8.07;;;4.50;90.10;;;;;;5009260;28;20041;-55
2021/01/03 12:37:00;;;;;;;11.38;8.27;;;4.50;89.60;;;;;;5012508;28;20054;-55
2021/01/03 12:39:26;;;;;;;10.68;7.50;;;4.40;89.30;;;;;;5011971;28;20052;-55
2021/01/03 12:41:52;;;;;;;9.90;7.45;;;4.40;88.50;;;;;;5013079;28;20042;-55
2021/01/03 12:44:18;;;;;;;11.13;7.82;;;4.50;89.40;;;;;;5010876;28;20084;-55
2021/01/03 12:46:44;;;;;;;9.25;6.95;;;4.60;89.50;;;;;;5012078;28;20057;-56
2021/01/03 12:49:11;;;;;;;9.45;6.55;;;4.60;88.50;;;;;;5012124;28;20353;-55
2021/01/03 12:51:38;;;;;;;10.00;7.70;;;4.60;87.70;;;;;;5012464;28;20394;-55
2021/01/03 12:54:04;;;;;;;8.70;7.18;;;4.60;87.30;;;;;;4991245;28;20041;-56
2021/01/03 12:56:30;;;;;;;9.23;6.50;;;4.50;88.40;;;;;;5009801;28;20046;-56
2021/01/03 12:58:58;;;;;;;7.75;5.72;;;4.50;88.00;;;;;;4996142;28;20034;-55